sensor_id;sensor_type;location;lat;lon;timestamp;P1;durP1;ratioP1;P2;durP2;ratioP2
22240;SDS011;11289;52.524;13.694;2023-03-01T00:55:36;15.85;;;8.07;;
22240;SDS011;11289;52.524;13.694;2023-03-01T01:01:20;11.45;;;6.68;;
22240;SDS011;11289;52.524;13.694;2023-03-01T01:04:34;10.45;;;6.22;;
22240;SDS011;11289;52.524;13.694;2023-03-01T01:07:13;12.18;;;8.20;;
22240;SDS011;11289;52.524;13.694;2023-03-01T01:10:16;13.98;;;6.53;;
22240;SDS011;11289;52.524;13.694;2023-03-01T01:12:55;12.27;;;7.43;;
22240;SDS011;11289;52.524;13.694;2023-03-01T01:22:38;12.43;;;6.97;;
22240;SDS011;11289;52.524;13.694;2023-03-01T01:26:38;13.25;;;8.23;;
22240;SDS011;11289;52.524;13.694;2023-03-01T01:29:22;11.25;;;7.53;;
22240;SDS011;11289;52.524;13.694;2023-03-01T01:31:54;13.48;;;8.32;;
22240;SDS011;11289;52.524;13.694;2023-03-01T01:34:20;13.52;;;8.30;;
22240;SDS011;11289;52.524;13.694;2023-03-01T01:36:52;11.20;;;7.65;;
22240;SDS011;11289;52.524;13.694;2023-03-01T01:39:19;10.75;;;7.60;;
22240;SDS011;11289;52.524;13.694;2023-03-01T01:41:46;13.07;;;8.07;;
22240;SDS011;11289;52.524;13.694;2023-03-01T01:44:16;11.30;;;7.85;;
22240;SDS011;11289;52.524;13.694;2023-03-01T01:46:52;11.23;;;7.47;;
22240;SDS011;11289;52.524;13.694;2023-03-01T01:49:42;15.43;;;7.80;;
22240;SDS011;11289;52.524;13.694;2023-03-01T01:55:00;13.50;;;8.70;;
22240;SDS011;11289;52.524;13.694;2023-03-01T02:00:27;13.02;;;8.55;;
22240;SDS011;11289;52.524;13.694;2023-03-01T02:02:55;10.35;;;7.22;;
22240;SDS011;11289;52.524;13.694;2023-03-01T02:05:53;12.57;;;7.80;;
22240;SDS011;11289;52.524;13.694;2023-03-01T02:08:27;12.13;;;8.18;;
22240;SDS011;11289;52.524;13.694;2023-03-01T02:10:55;12.15;;;7.38;;
22240;SDS011;11289;52.524;13.694;2023-03-01T02:13:21;14.40;;;8.93;;
22240;SDS011;11289;52.524;13.694;2023-03-01T02:15:57;13.90;;;8.40;;
22240;SDS011;11289;52.524;13.694;2023-03-01T02:18:26;10.70;;;7.28;;
22240;SDS011;11289;52.524;13.694;2023-03-01T02:23:35;12.38;;;9.07;;
22240;SDS011;11289;52.524;13.694;2023-03-01T02:26:03;14.00;;;9.10;;
22240;SDS011;11289;52.524;13.694;2023-03-01T02:28:56;14.70;;;9.52;;
22240;SDS011;11289;52.524;13.694;2023-03-01T02:31:22;15.45;;;9.82;;
22240;SDS011;11289;52.524;13.694;2023-03-01T02:34:06;13.68;;;8.60;;
22240;SDS011;11289;52.524;13.694;2023-03-01T02:36:38;14.63;;;9.52;;
22240;SDS011;11289;52.524;13.694;2023-03-01T02:39:07;10.82;;;7.10;;
22240;SDS011;11289;52.524;13.694;2023-03-01T02:41:40;13.85;;;8.82;;
22240;SDS011;11289;52.524;13.694;2023-03-01T02:44:07;11.15;;;6.95;;
22240;SDS011;11289;52.524;13.694;2023-03-01T02:46:33;14.27;;;9.00;;
22240;SDS011;11289;52.524;13.694;2023-03-01T02:57:36;14.82;;;8.57;;
22240;SDS011;11289;52.524;13.694;2023-03-01T03:00:05;14.23;;;8.32;;
22240;SDS011;11289;52.524;13.694;2023-03-01T03:02:34;16.48;;;8.50;;
22240;SDS011;11289;52.524;13.694;2023-03-01T03:05:10;12.85;;;7.80;;
22240;SDS011;11289;52.524;13.694;2023-03-01T03:07:40;12.93;;;8.68;;
22240;SDS011;11289;52.524;13.694;2023-03-01T03:10:09;14.50;;;9.07;;
22240;SDS011;11289;52.524;13.694;2023-03-01T03:12:37;13.93;;;8.40;;
22240;SDS011;11289;52.524;13.694;2023-03-01T03:15:15;13.02;;;8.52;;
22240;SDS011;11289;52.524;13.694;2023-03-01T03:18:24;12.30;;;7.88;;
22240;SDS011;11289;52.524;13.694;2023-03-01T03:21:00;13.07;;;8.02;;
22240;SDS011;11289;52.524;13.694;2023-03-01T03:23:38;15.07;;;7.82;;
22240;SDS011;11289;52.524;13.694;2023-03-01T03:27:03;11.30;;;7.65;;
22240;SDS011;11289;52.524;13.694;2023-03-01T03:36:23;13.85;;;8.18;;
22240;SDS011;11289;52.524;13.694;2023-03-01T03:39:02;15.88;;;8.60;;
22240;SDS011;11289;52.524;13.694;2023-03-01T03:41:27;13.80;;;8.63;;
22240;SDS011;11289;52.524;13.694;2023-03-01T03:43:59;13.93;;;8.73;;
22240;SDS011;11289;52.524;13.694;2023-03-01T03:46:26;13.80;;;8.60;;
22240;SDS011;11289;52.524;13.694;2023-03-01T03:49:04;14.20;;;9.23;;
22240;SDS011;11289;52.524;13.694;2023-03-01T03:51:49;14.48;;;8.70;;
22240;SDS011;11289;52.524;13.694;2023-03-01T03:54:26;15.98;;;10.23;;
22240;SDS011;11289;52.524;13.694;2023-03-01T03:56:52;14.05;;;8.65;;
22240;SDS011;11289;52.524;13.694;2023-03-01T03:59:18;15.90;;;9.35;;
22240;SDS011;11289;52.524;13.694;2023-03-01T04:01:45;14.15;;;9.45;;
22240;SDS011;11289;52.524;13.694;2023-03-01T04:04:17;14.48;;;8.55;;
22240;SDS011;11289;52.524;13.694;2023-03-01T04:06:48;13.32;;;7.97;;
22240;SDS011;11289;52.524;13.694;2023-03-01T04:11:44;14.18;;;7.95;;
22240;SDS011;11289;52.524;13.694;2023-03-01T04:14:10;15.48;;;8.18;;
22240;SDS011;11289;52.524;13.694;2023-03-01T04:16:35;13.57;;;7.28;;
22240;SDS011;11289;52.524;13.694;2023-03-01T04:19:07;14.82;;;7.75;;
22240;SDS011;11289;52.524;13.694;2023-03-01T04:21:34;13.65;;;8.50;;
22240;SDS011;11289;52.524;13.694;2023-03-01T04:24:03;11.82;;;7.28;;
22240;SDS011;11289;52.524;13.694;2023-03-01T04:26:32;13.10;;;7.78;;
22240;SDS011;11289;52.524;13.694;2023-03-01T04:29:01;13.60;;;8.38;;
22240;SDS011;11289;52.524;13.694;2023-03-01T04:31:26;14.32;;;8.48;;
22240;SDS011;11289;52.524;13.694;2023-03-01T04:33:54;14.45;;;8.32;;
22240;SDS011;11289;52.524;13.694;2023-03-01T04:36:22;13.68;;;8.45;;
22240;SDS011;11289;52.524;13.694;2023-03-01T04:38:49;14.48;;;8.20;;
22240;SDS011;11289;52.524;13.694;2023-03-01T04:41:15;15.75;;;9.00;;
22240;SDS011;11289;52.524;13.694;2023-03-01T04:43:42;14.73;;;8.27;;
22240;SDS011;11289;52.524;13.694;2023-03-01T04:46:08;12.20;;;7.75;;
22240;SDS011;11289;52.524;13.694;2023-03-01T04:48:36;14.63;;;8.30;;
22240;SDS011;11289;52.524;13.694;2023-03-01T04:51:03;11.43;;;6.78;;
22240;SDS011;11289;52.524;13.694;2023-03-01T04:53:29;12.93;;;7.45;;
22240;SDS011;11289;52.524;13.694;2023-03-01T04:55:55;13.35;;;7.40;;
22240;SDS011;11289;52.524;13.694;2023-03-01T04:58:30;15.50;;;8.27;;
22240;SDS011;11289;52.524;13.694;2023-03-01T05:00:56;13.13;;;8.13;;
22240;SDS011;11289;52.524;13.694;2023-03-01T05:03:21;12.48;;;7.57;;
22240;SDS011;11289;52.524;13.694;2023-03-01T05:05:48;15.05;;;8.50;;
22240;SDS011;11289;52.524;13.694;2023-03-01T05:08:15;14.48;;;8.07;;
22240;SDS011;11289;52.524;13.694;2023-03-01T05:10:44;14.30;;;8.05;;
22240;SDS011;11289;52.524;13.694;2023-03-01T05:13:12;11.52;;;7.20;;
22240;SDS011;11289;52.524;13.694;2023-03-01T05:15:40;16.27;;;7.63;;
22240;SDS011;11289;52.524;13.694;2023-03-01T05:18:05;14.27;;;6.85;;
22240;SDS011;11289;52.524;13.694;2023-03-01T05:20:36;12.02;;;6.88;;
22240;SDS011;11289;52.524;13.694;2023-03-01T05:23:02;18.75;;;7.80;;
22240;SDS011;11289;52.524;13.694;2023-03-01T05:25:30;14.88;;;7.70;;
22240;SDS011;11289;52.524;13.694;2023-03-01T05:27:57;10.93;;;7.30;;
22240;SDS011;11289;52.524;13.694;2023-03-01T05:30:23;12.90;;;8.48;;
22240;SDS011;11289;52.524;13.694;2023-03-01T05:32:49;14.90;;;7.90;;
22240;SDS011;11289;52.524;13.694;2023-03-01T05:35:20;11.40;;;7.82;;
22240;SDS011;11289;52.524;13.694;2023-03-01T05:37:47;14.82;;;8.65;;
22240;SDS011;11289;52.524;13.694;2023-03-01T05:40:15;14.77;;;8.20;;
22240;SDS011;11289;52.524;13.694;2023-03-01T05:45:14;16.67;;;8.13;;
22240;SDS011;11289;52.524;13.694;2023-03-01T05:47:41;14.02;;;8.05;;
22240;SDS011;11289;52.524;13.694;2023-03-01T05:50:12;12.90;;;7.90;;
22240;SDS011;11289;52.524;13.694;2023-03-01T05:52:48;12.32;;;7.93;;
22240;SDS011;11289;52.524;13.694;2023-03-01T05:55:16;12.02;;;7.28;;
22240;SDS011;11289;52.524;13.694;2023-03-01T05:57:44;14.82;;;7.70;;
22240;SDS011;11289;52.524;13.694;2023-03-01T06:00:10;20.83;;;8.10;;
22240;SDS011;11289;52.524;13.694;2023-03-01T06:02:36;13.93;;;8.25;;
22240;SDS011;11289;52.524;13.694;2023-03-01T06:05:03;11.63;;;6.88;;
22240;SDS011;11289;52.524;13.694;2023-03-01T06:07:29;13.73;;;7.13;;
22240;SDS011;11289;52.524;13.694;2023-03-01T06:09:55;15.55;;;8.40;;
22240;SDS011;11289;52.524;13.694;2023-03-01T06:12:20;13.38;;;7.97;;
22240;SDS011;11289;52.524;13.694;2023-03-01T06:14:46;14.23;;;7.93;;
22240;SDS011;11289;52.524;13.694;2023-03-01T06:17:12;12.18;;;7.72;;
22240;SDS011;11289;52.524;13.694;2023-03-01T06:19:37;12.30;;;8.07;;
22240;SDS011;11289;52.524;13.694;2023-03-01T06:22:03;13.57;;;8.10;;
22240;SDS011;11289;52.524;13.694;2023-03-01T06:24:28;13.25;;;6.90;;
22240;SDS011;11289;52.524;13.694;2023-03-01T06:26:54;12.32;;;7.50;;
22240;SDS011;11289;52.524;13.694;2023-03-01T06:29:20;15.40;;;8.32;;
22240;SDS011;11289;52.524;13.694;2023-03-01T06:31:47;12.40;;;7.70;;
22240;SDS011;11289;52.524;13.694;2023-03-01T06:34:12;13.93;;;8.13;;
22240;SDS011;11289;52.524;13.694;2023-03-01T06:36:38;18.08;;;8.85;;
22240;SDS011;11289;52.524;13.694;2023-03-01T06:39:04;15.13;;;8.13;;
22240;SDS011;11289;52.524;13.694;2023-03-01T06:41:30;13.27;;;7.65;;
22240;SDS011;11289;52.524;13.694;2023-03-01T06:43:56;15.15;;;8.85;;
22240;SDS011;11289;52.524;13.694;2023-03-01T06:46:21;15.52;;;9.27;;
22240;SDS011;11289;52.524;13.694;2023-03-01T06:48:47;21.33;;;11.10;;
22240;SDS011;11289;52.524;13.694;2023-03-01T06:51:12;18.23;;;10.68;;
22240;SDS011;11289;52.524;13.694;2023-03-01T06:53:38;17.05;;;10.82;;
22240;SDS011;11289;52.524;13.694;2023-03-01T06:56:03;17.80;;;10.63;;
22240;SDS011;11289;52.524;13.694;2023-03-01T06:58:29;18.77;;;11.02;;
22240;SDS011;11289;52.524;13.694;2023-03-01T07:00:54;18.92;;;11.00;;
22240;SDS011;11289;52.524;13.694;2023-03-01T07:03:19;18.85;;;11.60;;
22240;SDS011;11289;52.524;13.694;2023-03-01T07:05:45;15.75;;;10.18;;
22240;SDS011;11289;52.524;13.694;2023-03-01T07:08:10;17.75;;;10.48;;
22240;SDS011;11289;52.524;13.694;2023-03-01T07:10:35;18.20;;;11.68;;
22240;SDS011;11289;52.524;13.694;2023-03-01T07:13:01;16.27;;;10.32;;
22240;SDS011;11289;52.524;13.694;2023-03-01T07:15:26;19.00;;;10.80;;
22240;SDS011;11289;52.524;13.694;2023-03-01T07:17:52;18.17;;;10.60;;
22240;SDS011;11289;52.524;13.694;2023-03-01T07:20:18;16.70;;;10.10;;
22240;SDS011;11289;52.524;13.694;2023-03-01T07:22:49;23.17;;;11.93;;
22240;SDS011;11289;52.524;13.694;2023-03-01T07:25:15;22.55;;;11.02;;
22240;SDS011;11289;52.524;13.694;2023-03-01T07:27:40;17.30;;;10.05;;
22240;SDS011;11289;52.524;13.694;2023-03-01T07:30:05;18.40;;;9.40;;
22240;SDS011;11289;52.524;13.694;2023-03-01T07:32:31;21.60;;;11.02;;
22240;SDS011;11289;52.524;13.694;2023-03-01T07:34:57;19.63;;;11.52;;
22240;SDS011;11289;52.524;13.694;2023-03-01T07:37:22;26.30;;;12.68;;
22240;SDS011;11289;52.524;13.694;2023-03-01T07:39:47;22.90;;;14.45;;
22240;SDS011;11289;52.524;13.694;2023-03-01T07:42:13;19.65;;;15.40;;
22240;SDS011;11289;52.524;13.694;2023-03-01T07:44:38;18.80;;;14.07;;
22240;SDS011;11289;52.524;13.694;2023-03-01T07:47:03;18.83;;;13.30;;
22240;SDS011;11289;52.524;13.694;2023-03-01T07:49:29;22.48;;;12.50;;
22240;SDS011;11289;52.524;13.694;2023-03-01T07:51:54;20.42;;;12.27;;
22240;SDS011;11289;52.524;13.694;2023-03-01T07:54:20;14.52;;;9.93;;
22240;SDS011;11289;52.524;13.694;2023-03-01T07:56:45;14.73;;;10.77;;
22240;SDS011;11289;52.524;13.694;2023-03-01T07:59:11;14.77;;;9.60;;
22240;SDS011;11289;52.524;13.694;2023-03-01T08:01:36;13.68;;;9.38;;
22240;SDS011;11289;52.524;13.694;2023-03-01T08:04:01;15.20;;;9.68;;
22240;SDS011;11289;52.524;13.694;2023-03-01T08:06:27;18.13;;;10.38;;
22240;SDS011;11289;52.524;13.694;2023-03-01T08:08:52;16.42;;;10.13;;
22240;SDS011;11289;52.524;13.694;2023-03-01T08:11:20;14.15;;;9.27;;
22240;SDS011;11289;52.524;13.694;2023-03-01T08:13:47;20.42;;;10.63;;
22240;SDS011;11289;52.524;13.694;2023-03-01T08:16:13;16.05;;;10.00;;
22240;SDS011;11289;52.524;13.694;2023-03-01T08:18:40;14.30;;;9.45;;
22240;SDS011;11289;52.524;13.694;2023-03-01T08:21:13;16.58;;;9.55;;
22240;SDS011;11289;52.524;13.694;2023-03-01T08:23:40;12.85;;;8.52;;
22240;SDS011;11289;52.524;13.694;2023-03-01T08:26:11;13.60;;;8.77;;
22240;SDS011;11289;52.524;13.694;2023-03-01T08:28:44;12.52;;;8.80;;
22240;SDS011;11289;52.524;13.694;2023-03-01T08:33:39;17.95;;;9.80;;
22240;SDS011;11289;52.524;13.694;2023-03-01T08:36:05;11.48;;;7.95;;
22240;SDS011;11289;52.524;13.694;2023-03-01T08:38:32;11.95;;;9.30;;
22240;SDS011;11289;52.524;13.694;2023-03-01T08:41:02;14.25;;;8.55;;
22240;SDS011;11289;52.524;13.694;2023-03-01T08:43:28;12.52;;;8.00;;
22240;SDS011;11289;52.524;13.694;2023-03-01T08:45:54;14.68;;;9.00;;
22240;SDS011;11289;52.524;13.694;2023-03-01T08:48:20;13.98;;;8.93;;
22240;SDS011;11289;52.524;13.694;2023-03-01T08:50:46;16.92;;;8.82;;
22240;SDS011;11289;52.524;13.694;2023-03-01T08:53:11;15.10;;;9.80;;
22240;SDS011;11289;52.524;13.694;2023-03-01T08:55:36;12.32;;;7.55;;
22240;SDS011;11289;52.524;13.694;2023-03-01T08:58:02;13.00;;;8.18;;
22240;SDS011;11289;52.524;13.694;2023-03-01T09:00:27;14.85;;;8.55;;
22240;SDS011;11289;52.524;13.694;2023-03-01T09:02:52;12.30;;;8.68;;
22240;SDS011;11289;52.524;13.694;2023-03-01T09:05:18;13.60;;;7.93;;
22240;SDS011;11289;52.524;13.694;2023-03-01T09:07:43;11.23;;;7.25;;
22240;SDS011;11289;52.524;13.694;2023-03-01T09:10:09;12.18;;;7.63;;
22240;SDS011;11289;52.524;13.694;2023-03-01T09:12:34;8.90;;;5.70;;
22240;SDS011;11289;52.524;13.694;2023-03-01T09:15:00;9.63;;;6.30;;
22240;SDS011;11289;52.524;13.694;2023-03-01T09:17:25;11.13;;;6.88;;
22240;SDS011;11289;52.524;13.694;2023-03-01T09:19:50;9.02;;;5.90;;
22240;SDS011;11289;52.524;13.694;2023-03-01T09:22:16;10.40;;;6.30;;
22240;SDS011;11289;52.524;13.694;2023-03-01T09:24:41;11.13;;;6.40;;
22240;SDS011;11289;52.524;13.694;2023-03-01T09:27:06;10.95;;;6.97;;
22240;SDS011;11289;52.524;13.694;2023-03-01T09:29:34;7.75;;;5.65;;
22240;SDS011;11289;52.524;13.694;2023-03-01T09:32:02;7.70;;;4.80;;
22240;SDS011;11289;52.524;13.694;2023-03-01T09:34:28;6.93;;;4.32;;
22240;SDS011;11289;52.524;13.694;2023-03-01T09:36:53;8.65;;;5.20;;
22240;SDS011;11289;52.524;13.694;2023-03-01T09:39:19;9.93;;;5.53;;
22240;SDS011;11289;52.524;13.694;2023-03-01T09:44:36;7.80;;;4.40;;
22240;SDS011;11289;52.524;13.694;2023-03-01T09:47:21;7.53;;;3.58;;
22240;SDS011;11289;52.524;13.694;2023-03-01T09:50:00;7.00;;;4.38;;
22240;SDS011;11289;52.524;13.694;2023-03-01T09:55:01;8.60;;;4.18;;
22240;SDS011;11289;52.524;13.694;2023-03-01T09:57:36;6.03;;;4.00;;
22240;SDS011;11289;52.524;13.694;2023-03-01T10:00:26;5.13;;;3.10;;
22240;SDS011;11289;52.524;13.694;2023-03-01T10:03:03;5.47;;;3.35;;
22240;SDS011;11289;52.524;13.694;2023-03-01T10:05:44;6.10;;;2.95;;
22240;SDS011;11289;52.524;13.694;2023-03-01T10:11:03;6.45;;;3.40;;
22240;SDS011;11289;52.524;13.694;2023-03-01T10:16:37;5.53;;;2.55;;
22240;SDS011;11289;52.524;13.694;2023-03-01T10:19:11;3.85;;;2.25;;
22240;SDS011;11289;52.524;13.694;2023-03-01T10:21:41;4.40;;;2.35;;
22240;SDS011;11289;52.524;13.694;2023-03-01T10:24:11;7.65;;;2.67;;
22240;SDS011;11289;52.524;13.694;2023-03-01T10:26:51;3.88;;;2.30;;
22240;SDS011;11289;52.524;13.694;2023-03-01T10:32:02;5.50;;;2.78;;
22240;SDS011;11289;52.524;13.694;2023-03-01T10:34:31;5.68;;;2.70;;
22240;SDS011;11289;52.524;13.694;2023-03-01T10:37:09;7.82;;;2.72;;
22240;SDS011;11289;52.524;13.694;2023-03-01T10:43:10;6.65;;;2.88;;
22240;SDS011;11289;52.524;13.694;2023-03-01T10:50:40;3.70;;;2.20;;
22240;SDS011;11289;52.524;13.694;2023-03-01T10:53:18;5.90;;;2.38;;
22240;SDS011;11289;52.524;13.694;2023-03-01T10:56:04;3.35;;;1.90;;
22240;SDS011;11289;52.524;13.694;2023-03-01T10:58:31;3.80;;;2.22;;
22240;SDS011;11289;52.524;13.694;2023-03-01T11:00:58;4.90;;;2.25;;
22240;SDS011;11289;52.524;13.694;2023-03-01T11:03:30;7.40;;;2.95;;
22240;SDS011;11289;52.524;13.694;2023-03-01T11:06:00;4.18;;;2.47;;
22240;SDS011;11289;52.524;13.694;2023-03-01T11:08:55;4.03;;;2.90;;
22240;SDS011;11289;52.524;13.694;2023-03-01T11:11:31;3.85;;;2.50;;
22240;SDS011;11289;52.524;13.694;2023-03-01T11:13:59;4.00;;;2.58;;
22240;SDS011;11289;52.524;13.694;2023-03-01T11:16:33;3.97;;;2.20;;
22240;SDS011;11289;52.524;13.694;2023-03-01T11:24:06;3.10;;;1.52;;
22240;SDS011;11289;52.524;13.694;2023-03-01T11:26:38;1.92;;;1.42;;
22240;SDS011;11289;52.524;13.694;2023-03-01T11:29:10;3.05;;;1.58;;
22240;SDS011;11289;52.524;13.694;2023-03-01T11:31:50;5.43;;;1.98;;
22240;SDS011;11289;52.524;13.694;2023-03-01T11:34:19;1.70;;;1.50;;
22240;SDS011;11289;52.524;13.694;2023-03-01T11:37:12;2.85;;;1.63;;
22240;SDS011;11289;52.524;13.694;2023-03-01T11:39:53;3.33;;;1.85;;
22240;SDS011;11289;52.524;13.694;2023-03-01T11:45:15;4.43;;;2.28;;
22240;SDS011;11289;52.524;13.694;2023-03-01T12:01:27;2.65;;;1.70;;
22240;SDS011;11289;52.524;13.694;2023-03-01T12:04:22;2.45;;;1.30;;
22240;SDS011;11289;52.524;13.694;2023-03-01T12:10:02;3.43;;;1.10;;
22240;SDS011;11289;52.524;13.694;2023-03-01T12:12:49;3.35;;;1.30;;
22240;SDS011;11289;52.524;13.694;2023-03-01T12:18:49;1.60;;;1.00;;
22240;SDS011;11289;52.524;13.694;2023-03-01T12:27:51;3.50;;;1.70;;
22240;SDS011;11289;52.524;13.694;2023-03-01T12:30:25;3.50;;;1.80;;
22240;SDS011;11289;52.524;13.694;2023-03-01T12:36:40;3.40;;;1.95;;
22240;SDS011;11289;52.524;13.694;2023-03-01T12:39:09;5.07;;;2.40;;
22240;SDS011;11289;52.524;13.694;2023-03-01T12:50:04;5.45;;;2.20;;
22240;SDS011;11289;52.524;13.694;2023-03-01T12:52:42;4.10;;;2.30;;
22240;SDS011;11289;52.524;13.694;2023-03-01T12:55:45;4.85;;;2.42;;
22240;SDS011;11289;52.524;13.694;2023-03-01T13:01:01;4.65;;;2.42;;
22240;SDS011;11289;52.524;13.694;2023-03-01T13:03:52;5.10;;;2.28;;
22240;SDS011;11289;52.524;13.694;2023-03-01T13:06:47;3.47;;;2.42;;
22240;SDS011;11289;52.524;13.694;2023-03-01T13:17:55;4.75;;;2.95;;
22240;SDS011;11289;52.524;13.694;2023-03-01T13:20:32;3.60;;;2.15;;
22240;SDS011;11289;52.524;13.694;2023-03-01T13:33:48;5.75;;;2.20;;
22240;SDS011;11289;52.524;13.694;2023-03-01T13:47:25;3.42;;;1.80;;
22240;SDS011;11289;52.524;13.694;2023-03-01T13:49:48;4.03;;;1.90;;
22240;SDS011;11289;52.524;13.694;2023-03-01T13:52:24;4.47;;;2.03;;
22240;SDS011;11289;52.524;13.694;2023-03-01T13:54:57;41.15;;;28.75;;
22240;SDS011;11289;52.524;13.694;2023-03-01T13:57:25;22.52;;;19.25;;
22240;SDS011;11289;52.524;13.694;2023-03-01T13:59:54;10.60;;;8.02;;
22240;SDS011;11289;52.524;13.694;2023-03-01T14:02:20;4.40;;;2.95;;
22240;SDS011;11289;52.524;13.694;2023-03-01T14:04:46;5.13;;;3.40;;
22240;SDS011;11289;52.524;13.694;2023-03-01T14:07:22;4.30;;;2.40;;
22240;SDS011;11289;52.524;13.694;2023-03-01T14:10:04;4.68;;;1.75;;
22240;SDS011;11289;52.524;13.694;2023-03-01T14:12:51;3.55;;;2.25;;
22240;SDS011;11289;52.524;13.694;2023-03-01T14:16:09;4.10;;;2.33;;
22240;SDS011;11289;52.524;13.694;2023-03-01T14:18:35;6.00;;;3.60;;
22240;SDS011;11289;52.524;13.694;2023-03-01T14:21:13;3.15;;;2.15;;
22240;SDS011;11289;52.524;13.694;2023-03-01T14:23:40;3.85;;;2.20;;
22240;SDS011;11289;52.524;13.694;2023-03-01T14:26:07;4.95;;;3.53;;
22240;SDS011;11289;52.524;13.694;2023-03-01T14:28:34;3.10;;;1.88;;
22240;SDS011;11289;52.524;13.694;2023-03-01T14:31:21;4.57;;;3.08;;
22240;SDS011;11289;52.524;13.694;2023-03-01T14:34:18;6.25;;;3.05;;
22240;SDS011;11289;52.524;13.694;2023-03-01T14:36:45;4.18;;;3.17;;
22240;SDS011;11289;52.524;13.694;2023-03-01T14:39:18;3.83;;;2.40;;
22240;SDS011;11289;52.524;13.694;2023-03-01T15:56:58;3.17;;;2.42;;
22240;SDS011;11289;52.524;13.694;2023-03-01T16:54:42;7.20;;;4.57;;
22240;SDS011;11289;52.524;13.694;2023-03-01T17:42:13;17.50;;;11.05;;
